Time;durP1;ratioP1;P1;durP2;ratioP2;P2;SDS_P1;SDS_P2;PMS_P1;PMS_P2;Temp;Humidity;BMP_temperature;BMP_pressure;BME280_temperature;BME280_humidity;BME280_pressure;Samples;Min_cycle;Max_cycle;Signal;HPM_P1;HPM_P2
2023/07/14 00:00:14;;;;;;;3.53;2.30;;;17.10;99.90;;;;;;4909273;28;20899;-71
2023/07/14 00:02:41;;;;;;;2.17;1.97;;;17.10;99.90;;;;;;4911718;28;20239;-71
2023/07/14 00:05:12;;;;;;;6.37;2.53;;;17.20;99.90;;;;;;4920393;28;20206;-71
2023/07/14 00:07:38;;;;;;;2.73;2.07;;;17.00;99.90;;;;;;4920473;28;20220;-71
2023/07/14 00:10:14;;;;;;;5.90;3.70;;;16.90;99.90;;;;;;4918832;29;20609;-70
2023/07/14 00:12:39;;;;;;;2.43;2.23;;;16.90;99.90;;;;;;4926731;28;20203;-72
2023/07/14 00:15:05;;;;;;;2.27;2.03;;;17.00;99.90;;;;;;4921082;29;20222;-70
2023/07/14 00:17:30;;;;;;;3.00;2.23;;;17.00;99.90;;;;;;4929346;28;20662;-71
2023/07/14 00:19:56;;;;;;;2.87;2.57;;;16.80;99.90;;;;;;4923908;29;20295;-70
2023/07/14 00:22:22;;;;;;;3.83;2.40;;;16.80;99.90;;;;;;4927407;28;20242;-69
2023/07/14 00:24:47;;;;;;;3.33;2.57;;;16.80;99.90;;;;;;4961449;28;20213;-70
2023/07/14 00:27:18;;;;;;;3.60;2.20;;;17.00;99.90;;;;;;4919330;28;20704;-72
2023/07/14 00:29:49;;;;;;;3.57;2.77;;;16.90;99.90;;;;;;4919186;28;20246;-73
2023/07/14 00:32:20;;;;;;;2.27;2.17;;;17.00;99.90;;;;;;4926748;28;20293;-72
2023/07/14 00:34:46;;;;;;;2.30;2.13;;;16.90;99.90;;;;;;4914929;28;20934;-71
2023/07/14 00:37:12;;;;;;;2.00;1.87;;;16.80;99.90;;;;;;4923247;28;20229;-71
2023/07/14 00:39:39;;;;;;;1.90;1.80;;;16.90;99.90;;;;;;4920206;28;20543;-71
2023/07/14 00:42:10;;;;;;;3.20;2.20;;;16.80;99.90;;;;;;4926525;28;20199;-72
2023/07/14 00:44:36;;;;;;;5.37;2.67;;;16.80;99.90;;;;;;4919614;28;20206;-72
2023/07/14 00:47:01;;;;;;;3.63;2.13;;;16.90;99.90;;;;;;4922713;28;21580;-72
2023/07/14 00:49:39;;;;;;;3.57;2.70;;;16.90;99.90;;;;;;4920030;29;20222;-72
2023/07/14 00:52:12;;;;;;;1.97;1.87;;;16.90;99.90;;;;;;4915461;28;20207;-72
2023/07/14 00:54:43;;;;;;;6.27;3.40;;;16.90;99.90;;;;;;4918494;28;20292;-72
2023/07/14 00:57:16;;;;;;;4.07;2.97;;;17.00;99.90;;;;;;4921234;28;20238;-72
2023/07/14 00:59:41;;;;;;;2.63;2.40;;;17.10;99.90;;;;;;4929402;28;20764;-71
2023/07/14 01:02:10;;;;;;;5.03;3.03;;;17.00;99.90;;;;;;4921010;28;20649;-73
2023/07/14 01:04:41;;;;;;;3.20;2.90;;;16.90;99.90;;;;;;4921231;28;20774;-72
2023/07/14 01:07:07;;;;;;;3.03;2.57;;;16.90;99.90;;;;;;4935044;28;20666;-72
2023/07/14 01:09:34;;;;;;;5.07;3.03;;;16.80;99.90;;;;;;4928306;28;20244;-71
2023/07/14 01:12:02;;;;;;;3.60;2.73;;;16.80;99.90;;;;;;4924692;29;20214;-69
2023/07/14 01:14:32;;;;;;;3.87;2.80;;;16.70;99.90;;;;;;4924627;29;20214;-71
2023/07/14 01:16:58;;;;;;;3.33;3.03;;;16.70;99.90;;;;;;4925138;28;20205;-83
2023/07/14 01:19:43;;;;;;;3.57;2.90;;;16.80;99.90;;;;;;4930269;28;20666;-72
2023/07/14 01:22:32;;;;;;;3.07;2.77;;;16.80;99.90;;;;;;4919036;28;20206;-75
2023/07/14 01:25:35;;;;;;;4.20;2.93;;;16.80;99.90;;;;;;4915675;28;20631;-71
2023/07/14 01:28:03;;;;;;;4.23;3.30;;;16.70;99.90;;;;;;4917315;28;20258;-72
2023/07/14 01:30:29;;;;;;;4.23;3.20;;;16.60;99.90;;;;;;4919197;28;20753;-70
2023/07/14 01:32:55;;;;;;;4.33;3.27;;;16.50;99.90;;;;;;4918167;28;20206;-69
2023/07/14 01:35:27;;;;;;;6.63;3.20;;;16.40;99.90;;;;;;4919998;29;20700;-71
2023/07/14 01:37:53;;;;;;;3.10;2.80;;;16.60;99.90;;;;;;4921819;28;20205;-71
2023/07/14 01:40:19;;;;;;;3.83;3.47;;;16.60;99.90;;;;;;4920981;28;20206;-71
2023/07/14 01:43:00;;;;;;;3.20;2.63;;;16.60;99.90;;;;;;4920488;28;20593;-72
2023/07/14 01:45:30;;;;;;;3.20;2.67;;;16.70;99.90;;;;;;4934554;28;20220;-72
2023/07/14 01:47:58;;;;;;;4.70;2.77;;;16.70;99.90;;;;;;4921718;28;20210;-70
2023/07/14 01:50:27;;;;;;;3.13;2.93;;;16.70;99.90;;;;;;4925746;28;20206;-70
2023/07/14 01:53:00;;;;;;;3.60;2.90;;;16.60;99.90;;;;;;4923200;28;20273;-69
2023/07/14 01:55:31;;;;;;;5.90;3.60;;;16.60;99.90;;;;;;4920632;28;20216;-69
2023/07/14 01:57:58;;;;;;;3.13;2.37;;;16.50;99.90;;;;;;4916938;28;20214;-70
2023/07/14 02:00:25;;;;;;;2.80;2.60;;;16.50;99.90;;;;;;4915785;28;20199;-69
2023/07/14 02:02:52;;;;;;;4.67;2.40;;;16.40;99.90;;;;;;4919989;28;20211;-70
2023/07/14 02:05:30;;;;;;;3.23;3.03;;;16.40;99.90;;;;;;4920577;28;20202;-69
2023/07/14 02:08:00;;;;;;;3.00;2.80;;;16.40;99.90;;;;;;4915853;28;20282;-69
2023/07/14 02:10:26;;;;;;;4.37;3.20;;;16.40;99.90;;;;;;4926657;28;20688;-70
2023/07/14 02:12:54;;;;;;;2.83;2.63;;;16.40;99.90;;;;;;4927639;28;20277;-69
2023/07/14 02:15:25;;;;;;;3.03;2.83;;;16.40;99.90;;;;;;4918986;28;20214;-69
2023/07/14 02:17:52;;;;;;;4.40;2.90;;;16.50;99.90;;;;;;4915168;28;20210;-69
2023/07/14 02:20:38;;;;;;;4.03;3.10;;;16.50;99.90;;;;;;4926111;28;20202;-69
2023/07/14 02:23:09;;;;;;;4.00;3.57;;;16.40;99.90;;;;;;4918933;28;20208;-70
2023/07/14 02:25:41;;;;;;;3.47;3.07;;;16.40;99.90;;;;;;4909606;29;20677;-70
2023/07/14 02:28:09;;;;;;;3.43;3.13;;;16.40;99.90;;;;;;4977635;28;20215;-71
2023/07/14 02:30:36;;;;;;;3.60;2.93;;;16.50;99.90;;;;;;4919395;29;20211;-71
2023/07/14 02:33:15;;;;;;;3.50;3.20;;;16.50;99.90;;;;;;4926853;28;21001;-70
2023/07/14 02:36:00;;;;;;;3.50;2.73;;;16.50;99.90;;;;;;4917427;29;20634;-70
2023/07/14 02:38:25;;;;;;;3.03;2.73;;;16.40;99.90;;;;;;4917553;28;20211;-70
2023/07/14 02:41:13;;;;;;;4.50;3.50;;;16.40;99.90;;;;;;4920604;28;20211;-70
2023/07/14 02:43:38;;;;;;;5.27;3.33;;;16.30;99.90;;;;;;4990005;28;20217;-71
2023/07/14 02:46:21;;;;;;;3.53;3.23;;;16.20;99.90;;;;;;4927807;28;20200;-72
2023/07/14 02:48:50;;;;;;;4.50;3.10;;;16.20;99.90;;;;;;4918379;29;22278;-71
2023/07/14 02:51:15;;;;;;;4.37;2.70;;;16.30;99.90;;;;;;4920856;29;20293;-72
2023/07/14 02:53:41;;;;;;;7.07;3.37;;;16.40;99.90;;;;;;4907481;28;20641;-72
2023/07/14 02:56:07;;;;;;;3.30;3.00;;;16.50;99.90;;;;;;4909390;29;20196;-72
2023/07/14 02:58:34;;;;;;;4.87;3.13;;;16.50;99.90;;;;;;4914565;29;20668;-71
2023/07/14 03:01:00;;;;;;;3.27;3.00;;;16.50;99.90;;;;;;4921992;29;20633;-71
2023/07/14 03:03:26;;;;;;;4.90;3.80;;;16.50;99.90;;;;;;4927399;28;20202;-70
2023/07/14 03:05:53;;;;;;;4.40;3.80;;;16.40;99.90;;;;;;4926190;29;20577;-71
2023/07/14 03:08:19;;;;;;;5.03;3.07;;;16.20;99.90;;;;;;4922587;28;20254;-72
2023/07/14 03:10:46;;;;;;;3.17;2.97;;;16.20;99.90;;;;;;4913984;29;20250;-72
2023/07/14 03:13:14;;;;;;;3.73;3.27;;;16.30;99.90;;;;;;4923054;28;20314;-73
2023/07/14 03:15:43;;;;;;;4.20;3.27;;;16.30;99.90;;;;;;4917447;28;20221;-73
2023/07/14 03:18:08;;;;;;;5.40;3.37;;;16.30;99.90;;;;;;4921182;29;20225;-72
2023/07/14 03:20:34;;;;;;;3.70;3.40;;;16.40;99.90;;;;;;4917832;29;20297;-74
2023/07/14 03:22:59;;;;;;;3.80;3.50;;;16.50;99.90;;;;;;4912877;29;20812;-74
2023/07/14 03:25:26;;;;;;;6.70;4.40;;;16.60;99.90;;;;;;4927302;29;20202;-73
2023/07/14 03:27:52;;;;;;;4.67;4.23;;;16.70;99.90;;;;;;4926788;28;20214;-74
2023/07/14 03:30:17;;;;;;;4.47;4.17;;;16.60;99.90;;;;;;4920693;28;20688;-74
2023/07/14 03:32:43;;;;;;;3.60;3.30;;;16.60;99.90;;;;;;4921833;28;20221;-73
2023/07/14 03:35:08;;;;;;;4.20;3.70;;;16.60;99.90;;;;;;4916402;28;20363;-73
2023/07/14 03:37:34;;;;;;;4.53;3.93;;;16.70;99.90;;;;;;4917397;28;20202;-76
2023/07/14 03:39:59;;;;;;;6.23;4.23;;;16.60;99.90;;;;;;4926093;28;20217;-73
2023/07/14 03:42:25;;;;;;;4.97;3.50;;;16.60;99.90;;;;;;4922419;29;20256;-74
2023/07/14 03:44:50;;;;;;;4.27;3.87;;;16.60;99.90;;;;;;4920234;29;20264;-73
2023/07/14 03:47:16;;;;;;;4.73;3.87;;;16.50;99.90;;;;;;4926039;28;20299;-74
2023/07/14 03:49:41;;;;;;;4.63;4.07;;;16.30;99.90;;;;;;4918277;28;20215;-74
2023/07/14 03:52:07;;;;;;;4.77;3.80;;;16.20;99.90;;;;;;4920628;28;20677;-72
2023/07/14 03:54:33;;;;;;;4.20;3.80;;;16.00;99.90;;;;;;4920813;28;20263;-75
2023/07/14 03:56:59;;;;;;;3.70;3.40;;;16.20;99.90;;;;;;4917290;28;20210;-74
2023/07/14 03:59:25;;;;;;;4.10;3.80;;;16.10;99.90;;;;;;4923626;28;20221;-74
2023/07/14 04:01:51;;;;;;;4.20;3.80;;;16.10;99.90;;;;;;4916816;29;20213;-71
2023/07/14 04:04:19;;;;;;;6.27;4.10;;;16.10;99.90;;;;;;4912255;28;20222;-72
2023/07/14 04:06:45;;;;;;;4.27;3.97;;;16.30;99.90;;;;;;4922216;28;20846;-72
2023/07/14 04:09:10;;;;;;;4.13;3.83;;;16.50;99.90;;;;;;4917828;29;20235;-72
2023/07/14 04:11:36;;;;;;;4.40;3.87;;;16.50;99.90;;;;;;4927920;28;20727;-72
2023/07/14 04:14:03;;;;;;;3.67;3.37;;;16.30;99.90;;;;;;4926735;28;20325;-69
2023/07/14 04:16:30;;;;;;;3.93;3.63;;;16.30;99.90;;;;;;4924718;28;20222;-69
2023/07/14 04:18:55;;;;;;;7.87;3.67;;;16.30;99.90;;;;;;4925994;29;20207;-70
2023/07/14 04:21:24;;;;;;;4.80;3.70;;;16.30;99.90;;;;;;4916032;29;20209;-68
2023/07/14 04:23:51;;;;;;;5.17;4.17;;;16.40;99.90;;;;;;4919829;28;20251;-69
2023/07/14 04:26:17;;;;;;;4.97;3.93;;;16.50;99.90;;;;;;4924747;28;20555;-69
2023/07/14 04:28:42;;;;;;;6.40;4.37;;;16.60;99.90;;;;;;4924812;28;20303;-69
2023/07/14 04:31:08;;;;;;;4.13;3.73;;;16.70;99.90;;;;;;4920561;29;20566;-75
2023/07/14 04:33:33;;;;;;;3.93;3.47;;;16.60;99.90;;;;;;4924197;29;20200;-73
2023/07/14 04:35:59;;;;;;;3.60;3.17;;;16.70;99.90;;;;;;4919518;29;20206;-73
2023/07/14 04:38:25;;;;;;;4.47;4.00;;;16.70;99.90;;;;;;4919517;28;20251;-74
2023/07/14 04:40:50;;;;;;;5.97;4.00;;;16.70;99.90;;;;;;4925886;28;20214;-73
2023/07/14 04:43:20;;;;;;;3.93;3.47;;;16.70;99.90;;;;;;4922449;28;20195;-68
2023/07/14 04:45:46;;;;;;;4.93;3.93;;;16.80;99.90;;;;;;4922224;28;20216;-71
2023/07/14 04:48:14;;;;;;;9.53;4.00;;;16.90;99.90;;;;;;4922242;28;20198;-79
2023/07/14 04:50:39;;;;;;;6.77;4.17;;;16.90;99.90;;;;;;4920635;28;20207;-78
2023/07/14 04:53:06;;;;;;;6.10;3.90;;;16.90;99.90;;;;;;4919410;28;20275;-79
2023/07/14 04:55:36;;;;;;;5.53;3.73;;;16.90;99.90;;;;;;4919560;28;20291;-71
2023/07/14 04:58:02;;;;;;;5.27;3.97;;;17.00;99.90;;;;;;4912878;28;20694;-67
2023/07/14 05:00:28;;;;;;;5.37;3.60;;;16.80;99.90;;;;;;4920514;29;20210;-65
2023/07/14 05:02:53;;;;;;;5.70;3.60;;;16.60;99.90;;;;;;4916351;28;20312;-65
2023/07/14 05:05:21;;;;;;;4.80;3.90;;;16.50;99.90;;;;;;4921864;29;20210;-67
2023/07/14 05:07:48;;;;;;;3.93;3.60;;;16.50;99.90;;;;;;4918225;29;20203;-67
2023/07/14 05:10:14;;;;;;;5.13;3.63;;;16.60;99.90;;;;;;4915475;28;20218;-69
2023/07/14 05:12:40;;;;;;;5.67;4.20;;;16.90;99.90;;;;;;4924887;28;20190;-69
2023/07/14 05:15:10;;;;;;;5.60;3.67;;;17.00;99.90;;;;;;4928977;28;20221;-67
2023/07/14 05:17:36;;;;;;;4.23;3.90;;;17.10;99.90;;;;;;4927777;28;20288;-68
2023/07/14 05:20:03;;;;;;;3.40;3.07;;;17.10;99.90;;;;;;4918928;28;20593;-68
2023/07/14 05:22:28;;;;;;;5.03;3.67;;;17.10;99.90;;;;;;4917223;28;20669;-70
2023/07/14 05:24:54;;;;;;;4.57;4.13;;;17.10;99.90;;;;;;4919339;28;20321;-70
2023/07/14 05:27:20;;;;;;;4.43;3.70;;;17.10;99.90;;;;;;4919393;29;20197;-75
2023/07/14 05:29:46;;;;;;;4.40;3.37;;;17.20;99.90;;;;;;4918433;29;20724;-77
2023/07/14 05:32:12;;;;;;;4.00;3.50;;;17.30;99.90;;;;;;4920233;29;20219;-77
2023/07/14 05:34:37;;;;;;;5.20;4.70;;;17.30;99.90;;;;;;4917326;29;22234;-78
2023/07/14 05:37:03;;;;;;;5.80;3.60;;;17.30;99.90;;;;;;4918568;28;20210;-79
2023/07/14 05:39:29;;;;;;;4.00;3.67;;;17.40;99.90;;;;;;4920939;28;20227;-74
2023/07/14 05:41:58;;;;;;;6.67;3.40;;;17.40;99.90;;;;;;4916440;28;20696;-65
2023/07/14 05:44:24;;;;;;;4.00;3.40;;;17.50;99.90;;;;;;4916752;28;20290;-66
2023/07/14 05:46:50;;;;;;;5.37;4.30;;;17.50;99.90;;;;;;4914812;29;20211;-65
2023/07/14 05:49:16;;;;;;;3.73;3.43;;;17.50;99.90;;;;;;4922026;29;20199;-68
2023/07/14 05:51:41;;;;;;;3.40;3.00;;;17.50;99.90;;;;;;4918599;28;20222;-65
2023/07/14 05:54:07;;;;;;;4.60;3.70;;;17.60;99.90;;;;;;4915580;28;20247;-66
2023/07/14 05:56:33;;;;;;;4.03;3.50;;;17.70;99.90;;;;;;4918960;29;20266;-65
2023/07/14 05:58:59;;;;;;;3.60;3.30;;;17.70;99.90;;;;;;4918120;28;20207;-67
2023/07/14 06:01:24;;;;;;;3.43;2.87;;;17.90;99.90;;;;;;4922206;29;20261;-65
2023/07/14 06:03:50;;;;;;;3.47;3.00;;;17.90;99.90;;;;;;4918081;28;20222;-74
2023/07/14 06:06:15;;;;;;;3.90;3.40;;;18.00;99.90;;;;;;4912635;28;20864;-75
2023/07/14 06:08:42;;;;;;;3.87;2.97;;;18.10;99.90;;;;;;4915972;29;20261;-75
2023/07/14 06:11:07;;;;;;;3.40;3.10;;;18.00;99.90;;;;;;4922802;29;20246;-76
2023/07/14 06:13:33;;;;;;;2.80;2.60;;;18.00;99.90;;;;;;4923274;29;20196;-76
2023/07/14 06:15:59;;;;;;;3.03;2.73;;;18.20;99.90;;;;;;4919412;28;20739;-66
2023/07/14 06:18:25;;;;;;;4.57;2.77;;;18.30;99.90;;;;;;4922001;28;20201;-66
2023/07/14 06:20:51;;;;;;;2.33;2.23;;;18.40;99.90;;;;;;4925085;28;20200;-71
2023/07/14 06:23:17;;;;;;;4.27;2.97;;;18.50;99.90;;;;;;4923888;29;20681;-71
2023/07/14 06:25:42;;;;;;;3.77;2.40;;;18.60;99.90;;;;;;4917590;28;20217;-70
2023/07/14 06:28:08;;;;;;;2.60;2.13;;;18.80;99.90;;;;;;4918630;28;20531;-72
2023/07/14 06:30:35;;;;;;;3.77;2.20;;;18.90;99.90;;;;;;4917299;28;20254;-71
2023/07/14 06:33:01;;;;;;;3.67;2.73;;;18.90;99.90;;;;;;4918957;29;20214;-71
2023/07/14 06:35:26;;;;;;;3.00;2.67;;;18.90;99.90;;;;;;4915831;28;20213;-68
2023/07/14 06:37:52;;;;;;;2.80;2.60;;;18.90;99.90;;;;;;4919460;28;20251;-68
2023/07/14 06:40:18;;;;;;;3.80;2.57;;;18.70;99.90;;;;;;4926195;28;20205;-67
2023/07/14 06:42:43;;;;;;;4.60;2.67;;;18.70;99.90;;;;;;4922541;29;20228;-68
2023/07/14 06:45:09;;;;;;;4.87;2.87;;;19.00;99.90;;;;;;4925845;29;20273;-68
2023/07/14 06:47:34;;;;;;;3.53;2.80;;;19.20;99.90;;;;;;4925195;29;20204;-69
2023/07/14 06:50:00;;;;;;;4.43;3.00;;;19.30;99.90;;;;;;4917585;29;20698;-68
2023/07/14 06:52:25;;;;;;;2.30;2.10;;;19.30;99.90;;;;;;4919846;29;20206;-68
2023/07/14 06:54:52;;;;;;;3.47;3.10;;;19.30;99.90;;;;;;4915924;28;20320;-73
2023/07/14 06:57:18;;;;;;;4.93;2.70;;;19.20;99.90;;;;;;4927438;28;20201;-68
2023/07/14 06:59:43;;;;;;;3.83;2.30;;;19.30;99.90;;;;;;4920821;28;20225;-67
2023/07/14 07:02:11;;;;;;;3.20;2.50;;;19.50;99.90;;;;;;4913817;29;20209;-68
2023/07/14 07:04:37;;;;;;;4.13;2.57;;;19.50;99.90;;;;;;4912619;28;20284;-70
2023/07/14 07:07:04;;;;;;;6.90;2.53;;;19.50;99.90;;;;;;4921739;29;20234;-74
2023/07/14 07:09:29;;;;;;;2.47;2.37;;;19.60;99.90;;;;;;4914309;28;20230;-71
2023/07/14 07:11:55;;;;;;;3.93;2.50;;;19.50;99.90;;;;;;4927307;29;20201;-71
2023/07/14 07:14:21;;;;;;;2.60;2.40;;;19.50;99.90;;;;;;4924307;28;20213;-74
2023/07/14 07:16:46;;;;;;;6.10;2.60;;;19.50;99.90;;;;;;4918067;28;20209;-71
2023/07/14 07:19:12;;;;;;;2.70;2.33;;;19.60;99.90;;;;;;4916555;28;20205;-74
2023/07/14 07:21:37;;;;;;;2.77;1.97;;;19.70;99.90;;;;;;4921905;28;20576;-69
2023/07/14 07:24:04;;;;;;;1.93;1.83;;;19.80;99.90;;;;;;4922735;28;20245;-70
2023/07/14 07:26:30;;;;;;;3.53;2.20;;;19.90;99.90;;;;;;4922867;29;20215;-70
2023/07/14 07:28:56;;;;;;;2.40;1.73;;;20.00;99.90;;;;;;4924481;28;20201;-71
2023/07/14 07:31:21;;;;;;;4.70;1.83;;;20.00;99.90;;;;;;4917185;28;20206;-77
2023/07/14 07:33:47;;;;;;;5.07;2.60;;;20.00;99.90;;;;;;4990311;28;20199;-75
2023/07/14 07:36:17;;;;;;;3.17;2.17;;;19.90;99.90;;;;;;4918755;28;20670;-67
2023/07/14 07:38:45;;;;;;;3.97;1.87;;;19.80;99.90;;;;;;4917661;29;20270;-67
2023/07/14 07:41:11;;;;;;;3.03;2.00;;;19.70;99.90;;;;;;4920770;28;20206;-74
2023/07/14 07:43:37;;;;;;;2.67;1.67;;;20.00;99.90;;;;;;4922249;28;20285;-76
2023/07/14 07:46:03;;;;;;;3.40;1.93;;;20.10;99.90;;;;;;4929429;28;20288;-76
2023/07/14 07:48:28;;;;;;;3.00;1.83;;;19.90;99.90;;;;;;4918448;28;20198;-76
2023/07/14 07:50:53;;;;;;;5.67;2.77;;;19.80;99.90;;;;;;4927670;29;20509;-76
2023/07/14 07:53:19;;;;;;;4.87;2.30;;;20.00;99.90;;;;;;4925540;29;20202;-71
2023/07/14 07:55:53;;;;;;;5.77;2.10;;;20.20;99.90;;;;;;4919685;28;20205;-72
2023/07/14 07:58:18;;;;;;;4.03;2.00;;;20.40;99.90;;;;;;4916187;28;20222;-71
2023/07/14 08:00:45;;;;;;;4.20;2.37;;;20.40;99.90;;;;;;4918182;28;20218;-72
2023/07/14 08:03:10;;;;;;;3.30;2.37;;;20.40;99.90;;;;;;4915903;28;20292;-71
2023/07/14 08:05:35;;;;;;;4.07;2.33;;;20.50;99.90;;;;;;4918133;29;20244;-73
2023/07/14 08:08:01;;;;;;;3.00;1.87;;;20.40;99.90;;;;;;4922255;28;20267;-73
2023/07/14 08:10:26;;;;;;;2.20;1.70;;;20.40;99.90;;;;;;4921844;29;20301;-68
2023/07/14 08:12:52;;;;;;;1.97;1.87;;;20.50;99.90;;;;;;4920639;29;20230;-75
2023/07/14 08:15:18;;;;;;;1.80;1.70;;;20.60;99.90;;;;;;4928227;28;20208;-73
2023/07/14 08:17:54;;;;;;;2.23;2.03;;;20.80;99.90;;;;;;4926710;29;20269;-72
2023/07/14 08:20:20;;;;;;;4.57;1.90;;;20.90;99.90;;;;;;4925544;28;20208;-72
2023/07/14 08:22:46;;;;;;;3.63;1.70;;;20.90;99.90;;;;;;4930040;29;20214;-73
2023/07/14 08:25:12;;;;;;;5.63;1.90;;;20.90;99.90;;;;;;4926674;28;20699;-75
2023/07/14 08:27:38;;;;;;;2.93;1.80;;;20.70;99.90;;;;;;4925810;28;20600;-69
2023/07/14 08:30:06;;;;;;;2.53;1.80;;;20.70;99.90;;;;;;4920381;29;20618;-69
2023/07/14 08:32:33;;;;;;;2.60;1.80;;;20.90;99.90;;;;;;4923492;29;20572;-68
2023/07/14 08:34:58;;;;;;;6.87;2.17;;;20.80;99.90;;;;;;4917494;28;20734;-70
2023/07/14 08:37:24;;;;;;;2.57;2.37;;;20.90;99.90;;;;;;4927877;29;20308;-69
2023/07/14 08:39:49;;;;;;;3.43;1.47;;;21.00;99.20;;;;;;4918165;28;20621;-79
2023/07/14 08:42:52;;;;;;;2.23;1.80;;;21.10;99.10;;;;;;4913116;28;20283;-80
2023/07/14 08:45:44;;;;;;;4.10;2.20;;;21.30;99.40;;;;;;4933225;28;20227;-79
2023/07/14 08:48:12;;;;;;;1.80;1.70;;;21.30;98.60;;;;;;4974668;28;20702;-72
2023/07/14 08:50:39;;;;;;;3.57;2.00;;;21.30;98.20;;;;;;4925310;28;20688;-71
2023/07/14 08:53:11;;;;;;;3.20;1.90;;;21.40;97.90;;;;;;4917033;29;20269;-73
2023/07/14 08:55:39;;;;;;;2.53;1.80;;;21.40;98.50;;;;;;4917649;28;20298;-72
2023/07/14 08:58:21;;;;;;;2.00;1.80;;;21.50;97.90;;;;;;4926121;28;20242;-77
2023/07/14 09:00:49;;;;;;;4.27;2.10;;;21.30;98.60;;;;;;4931542;29;20269;-79
2023/07/14 09:03:39;;;;;;;4.17;1.80;;;21.50;97.40;;;;;;4925908;28;20294;-79
2023/07/14 09:06:24;;;;;;;3.90;2.00;;;21.60;97.80;;;;;;4913255;28;20346;-71
2023/07/14 09:08:51;;;;;;;1.93;1.83;;;21.70;97.30;;;;;;4928312;28;20233;-73
2023/07/14 09:11:30;;;;;;;2.97;1.70;;;21.80;96.40;;;;;;4931809;28;20203;-76
2023/07/14 09:14:16;;;;;;;2.60;1.30;;;21.80;96.70;;;;;;4926731;28;20534;-77
2023/07/14 09:16:53;;;;;;;1.80;1.70;;;21.90;95.50;;;;;;4922107;28;20201;-78
2023/07/14 09:20:13;;;;;;;2.80;1.70;;;21.90;97.70;;;;;;4912172;29;20206;-77
2023/07/14 09:23:28;;;;;;;2.70;2.10;;;21.80;96.60;;;;;;4918673;28;20204;-71
2023/07/14 09:26:03;;;;;;;1.90;1.80;;;22.00;95.30;;;;;;4915874;28;20248;-77
2023/07/14 09:28:35;;;;;;;2.63;1.53;;;22.00;96.50;;;;;;4911054;28;20202;-79
2023/07/14 09:31:09;;;;;;;3.37;1.87;;;22.10;94.60;;;;;;4914500;28;20420;-73
2023/07/14 09:33:46;;;;;;;2.63;1.60;;;22.00;94.70;;;;;;4910397;28;20210;-74
2023/07/14 09:36:12;;;;;;;2.07;1.50;;;22.10;94.70;;;;;;4913823;28;20694;-77
2023/07/14 09:38:47;;;;;;;1.90;1.77;;;22.10;95.40;;;;;;4922094;29;20232;-80
2023/07/14 09:41:16;;;;;;;2.00;1.87;;;22.10;96.00;;;;;;4920004;28;20667;-75
2023/07/14 09:43:43;;;;;;;2.40;1.80;;;22.30;94.70;;;;;;4915787;28;20203;-81
2023/07/14 09:46:10;;;;;;;3.30;1.80;;;22.60;92.70;;;;;;4945557;28;20227;-75
2023/07/14 09:48:42;;;;;;;3.37;2.07;;;22.70;92.50;;;;;;4906134;28;20739;-73
2023/07/14 09:51:20;;;;;;;2.33;2.13;;;22.50;94.70;;;;;;4914193;28;21045;-77
2023/07/14 09:54:01;;;;;;;3.07;2.00;;;22.30;95.50;;;;;;4917530;29;20979;-80
2023/07/14 09:56:31;;;;;;;2.70;1.73;;;22.30;95.10;;;;;;4916818;28;20211;-74
2023/07/14 09:59:02;;;;;;;3.73;1.70;;;22.50;95.30;;;;;;4917704;28;20296;-80
2023/07/14 10:01:32;;;;;;;2.00;1.87;;;22.60;95.70;;;;;;4924418;28;20206;-80
2023/07/14 10:04:10;;;;;;;2.63;1.63;;;22.90;93.30;;;;;;4915637;29;20385;-83
2023/07/14 10:06:36;;;;;;;1.80;1.70;;;22.80;93.50;;;;;;4923287;28;20219;-72
2023/07/14 10:09:13;;;;;;;6.30;3.17;;;22.90;92.60;;;;;;4912258;29;20709;-75
2023/07/14 10:11:47;;;;;;;5.03;3.70;;;22.90;93.00;;;;;;4926007;28;20226;-79
2023/07/14 10:14:35;;;;;;;23.03;15.23;;;22.70;93.20;;;;;;4934639;28;20280;-79
2023/07/14 10:17:02;;;;;;;3.07;2.40;;;22.70;93.10;;;;;;4917198;29;20206;-81
2023/07/14 10:19:37;;;;;;;3.00;2.00;;;22.60;93.90;;;;;;4921603;29;20207;-81
2023/07/14 10:22:14;;;;;;;3.63;2.03;;;22.70;93.00;;;;;;4922262;28;20680;-84
2023/07/14 10:24:45;;;;;;;2.30;1.83;;;22.70;92.40;;;;;;4919041;28;20274;-84
2023/07/14 10:27:23;;;;;;;1.60;1.50;;;22.70;91.10;;;;;;4928141;28;20201;-83
2023/07/14 10:30:06;;;;;;;4.43;1.98;;;22.70;90.30;;;;;;4924507;28;20244;-84
2023/07/14 10:32:34;;;;;;;1.73;1.63;;;22.80;90.20;;;;;;4927919;28;20204;-84
2023/07/14 10:35:08;;;;;;;3.47;2.10;;;22.70;90.30;;;;;;4943493;28;20892;-84
2023/07/14 10:37:39;;;;;;;2.83;2.20;;;22.70;91.00;;;;;;4942003;28;20282;-84
2023/07/14 10:40:11;;;;;;;2.50;1.90;;;22.70;91.50;;;;;;4947387;28;20219;-83
2023/07/14 10:42:52;;;;;;;3.20;1.80;;;22.80;90.80;;;;;;4929307;28;20660;-83
2023/07/14 10:45:18;;;;;;;2.93;1.80;;;22.80;90.10;;;;;;4929450;29;20254;-81
2023/07/14 10:48:04;;;;;;;2.50;1.70;;;22.80;88.80;;;;;;4988244;28;20676;-83
2023/07/14 10:50:37;;;;;;;3.30;1.80;;;22.90;90.00;;;;;;4927704;28;20589;-82
2023/07/14 10:53:23;;;;;;;2.33;1.90;;;22.90;89.10;;;;;;4919884;28;20265;-83
2023/07/14 10:55:52;;;;;;;2.30;2.10;;;22.80;90.00;;;;;;4930535;28;20214;-83
2023/07/14 10:58:36;;;;;;;2.72;1.85;;;23.10;88.10;;;;;;4927845;28;20229;-83
2023/07/14 11:01:08;;;;;;;2.70;2.08;;;23.30;87.40;;;;;;4926380;28;20241;-83
2023/07/14 11:03:47;;;;;;;1.93;1.83;;;23.40;86.60;;;;;;4923000;28;20218;-84
2023/07/14 11:06:24;;;;;;;2.80;1.90;;;23.60;85.30;;;;;;4919994;28;20621;-84
2023/07/14 11:08:55;;;;;;;2.83;1.90;;;23.90;84.60;;;;;;4933699;28;20275;-84
2023/07/14 11:11:28;;;;;;;1.50;1.40;;;24.10;84.10;;;;;;4919844;28;20661;-84
2023/07/14 11:14:17;;;;;;;1.70;1.60;;;24.40;85.70;;;;;;4924956;28;20575;-84
2023/07/14 11:17:40;;;;;;;3.88;2.13;;;24.40;84.10;;;;;;4937498;28;20603;-83
2023/07/14 11:20:26;;;;;;;2.28;1.50;;;24.70;85.00;;;;;;4934610;29;20298;-84
2023/07/14 11:22:59;;;;;;;2.45;1.77;;;25.10;77.80;;;;;;4935781;29;20209;-84
2023/07/14 11:25:42;;;;;;;3.03;1.83;;;25.40;76.00;;;;;;4936787;28;20344;-85
2023/07/14 11:28:16;;;;;;;3.88;1.90;;;25.30;76.80;;;;;;4934734;28;20314;-84
2023/07/14 11:30:45;;;;;;;3.83;1.95;;;25.40;76.30;;;;;;4913979;28;20212;-83
2023/07/14 11:33:36;;;;;;;3.63;2.00;;;25.80;73.90;;;;;;4924666;28;20219;-84
2023/07/14 11:36:23;;;;;;;2.05;1.85;;;25.80;74.50;;;;;;4931061;28;20212;-84
2023/07/14 11:38:57;;;;;;;4.20;2.17;;;25.80;73.70;;;;;;4926143;28;20209;-84
2023/07/14 11:41:24;;;;;;;2.78;2.25;;;26.20;71.60;;;;;;4926691;29;20220;-84
2023/07/14 11:43:51;;;;;;;3.70;1.98;;;26.30;70.30;;;;;;4945665;28;20223;-84
2023/07/14 11:46:19;;;;;;;3.83;2.22;;;26.30;71.50;;;;;;4925495;28;20217;-84
2023/07/14 11:48:53;;;;;;;2.92;2.28;;;26.10;69.40;;;;;;4926950;28;20213;-84
2023/07/14 11:51:20;;;;;;;3.08;2.25;;;25.80;71.20;;;;;;4924988;29;20246;-84
2023/07/14 11:54:03;;;;;;;3.63;2.35;;;25.80;70.50;;;;;;4927343;28;20759;-84
2023/07/14 11:56:34;;;;;;;2.85;2.28;;;25.80;75.30;;;;;;4926985;29;20209;-84
2023/07/14 11:59:25;;;;;;;2.38;2.17;;;26.30;73.30;;;;;;4922075;28;20331;-83
2023/07/14 12:01:53;;;;;;;3.63;2.17;;;26.10;71.40;;;;;;4925381;28;20202;-84
2023/07/14 12:04:22;;;;;;;2.30;2.10;;;26.20;70.90;;;;;;4927023;28;20236;-84
2023/07/14 12:06:50;;;;;;;3.38;2.58;;;26.60;69.70;;;;;;4927059;29;20289;-84
2023/07/14 12:09:18;;;;;;;2.72;2.45;;;26.50;68.40;;;;;;4926247;28;20210;-84
2023/07/14 12:11:53;;;;;;;3.75;2.55;;;26.70;72.20;;;;;;4948943;28;20200;-84
2023/07/14 12:14:37;;;;;;;3.90;2.58;;;27.50;65.80;;;;;;4926653;28;20247;-84
2023/07/14 12:17:05;;;;;;;2.40;2.20;;;27.60;64.30;;;;;;4923788;28;20254;-85
2023/07/14 12:19:54;;;;;;;3.05;2.60;;;27.60;62.60;;;;;;4925634;29;20213;-66
2023/07/14 12:22:47;;;;;;;3.33;2.83;;;27.40;63.60;;;;;;4917235;28;20681;-73
2023/07/14 12:25:18;;;;;;;2.95;2.75;;;27.40;65.80;;;;;;4915569;28;20225;-74
2023/07/14 12:27:47;;;;;;;3.67;2.55;;;27.50;62.80;;;;;;4979145;28;20553;-74
2023/07/14 12:30:22;;;;;;;2.83;2.63;;;27.80;62.80;;;;;;4917070;28;20252;-86
2023/07/14 12:32:49;;;;;;;2.75;2.55;;;28.10;60.40;;;;;;4917438;28;20543;-80
2023/07/14 12:35:17;;;;;;;3.03;2.67;;;27.50;60.50;;;;;;4919305;28;20214;-83
2023/07/14 12:37:43;;;;;;;3.45;2.95;;;27.20;60.70;;;;;;4917165;29;20301;-85
2023/07/14 12:40:19;;;;;;;3.30;3.00;;;26.90;61.70;;;;;;4918409;28;20266;-84
2023/07/14 12:42:45;;;;;;;5.55;2.60;;;27.70;59.60;;;;;;4916538;28;20249;-82
2023/07/14 12:45:16;;;;;;;3.47;2.75;;;28.60;58.40;;;;;;4921290;28;20250;-79
2023/07/14 12:47:46;;;;;;;3.70;3.25;;;29.10;56.70;;;;;;4927589;28;20219;-83
2023/07/14 12:50:24;;;;;;;2.72;2.53;;;28.70;59.10;;;;;;4923738;28;20328;-69
2023/07/14 12:52:50;;;;;;;2.53;2.40;;;28.30;60.30;;;;;;4914820;28;20720;-75
2023/07/14 12:55:19;;;;;;;3.67;3.05;;;28.30;57.60;;;;;;4919500;29;20572;-73
2023/07/14 12:57:47;;;;;;;3.63;3.30;;;28.80;60.30;;;;;;4919560;28;20256;-74
2023/07/14 13:00:32;;;;;;;4.50;3.58;;;29.10;57.90;;;;;;4918039;29;20215;-71
2023/07/14 13:02:59;;;;;;;8.13;3.47;;;29.80;54.20;;;;;;4922060;29;20226;-77